PWSweather.com
Personal Weather Stations
Station Observations
PALMY
Palmerston NorthNZ 4410

Palmerston NorthNZ 4410

Lat: -40.349104, Lon: 175.615094

Elevation: 75.4

Station Type: WeatherDuino Pro2

http://palmyweather.co.nz

Latest ConditionsUpdated 3:00:00 PM GMT+12:12 Tuesday, Apr 24, 2018
Currently Today's Max Today's Min Today's Average
Temperature 58.6°F14.8°C 60.2°F15.7°C 50.9°F10.5°C 54.7°F12.6°C
Dew Point 51.4°F10.8°C 55.6°F13.1°C 48.8°F9.3°C 51.1°F10.6°C
Winds 8.5 mph WSW13.7 kmh WSW 12.5 mph NW20.1 kmh NW - 6.8 mph 10.9 kmh
Wind Gusts 22.0 mph35.4 kmh 31.4 mph50.5 kmh - -
Humidity 77% 95% 77% 88%
Pressure 30.03 in1016.9 mb 30.14 in1020.7 mb 30.03 in1016.9 mb -
Precipitation - 0.03 in0.8 mm - -
Hour Temp Dew Point Humidity Winds Wind Gusts Pressure Precip Precip Rate Daily Precip Total
03:00 PM 58.6°F14.8°C 51.4°F10.8°C 77% 8.5 mph WSW13.7 kmh WSW 22.0 mph35.4 kmh 30.03 in1016.9 mb 0.00 in0.0 mm 0.00 in0.0 mm 0.03 in0.8 mm
02:55 PM 58.6°F14.8°C 51.8°F11.0°C 78% 8.1 mph WSW13.0 kmh WSW 22.0 mph35.4 kmh 30.03 in1016.9 mb 0.00 in0.0 mm 0.00 in0.0 mm 0.03 in0.8 mm
02:50 PM 58.6°F14.8°C 52.1°F11.2°C 79% 8.5 mph W13.7 kmh W 28.7 mph46.2 kmh 30.03 in1016.9 mb 0.00 in0.0 mm 0.00 in0.0 mm 0.03 in0.8 mm
02:45 PM 58.4°F14.7°C 52.3°F11.3°C 80% 9.4 mph W15.1 kmh W 28.7 mph46.2 kmh 30.03 in1016.9 mb 0.00 in0.0 mm 0.00 in0.0 mm 0.03 in0.8 mm
02:40 PM 58.4°F14.7°C 52.6°F11.4°C 81% 8.5 mph WSW13.7 kmh WSW 28.7 mph46.2 kmh 30.03 in1016.9 mb 0.00 in0.0 mm 0.00 in0.0 mm 0.03 in0.8 mm
02:35 PM 58.1°F14.5°C 53.0°F11.7°C 83% 8.1 mph WSW13.0 kmh WSW 26.9 mph43.3 kmh 30.03 in1016.9 mb 0.00 in0.0 mm 0.00 in0.0 mm 0.03 in0.8 mm
02:30 PM 58.1°F14.5°C 53.7°F12.1°C 85% 8.1 mph WSW13.0 kmh WSW 21.5 mph34.6 kmh 30.03 in1016.9 mb 0.00 in0.0 mm 0.00 in0.0 mm 0.03 in0.8 mm
02:25 PM 58.4°F14.7°C 53.3°F11.8°C 83% 8.1 mph WSW13.0 kmh WSW 21.5 mph34.6 kmh 30.04 in1017.3 mb 0.00 in0.0 mm 0.00 in0.0 mm 0.03 in0.8 mm
02:20 PM 59.1°F15.1°C 53.6°F12.0°C 82% 8.5 mph WSW13.7 kmh WSW 18.4 mph29.6 kmh 30.03 in1016.9 mb 0.01 in0.3 mm 0.00 in0.0 mm 0.03 in0.8 mm
02:15 PM 59.3°F15.2°C 53.5°F11.9°C 81% 8.5 mph WSW13.7 kmh WSW 18.8 mph30.3 kmh 30.03 in1016.9 mb 0.02 in0.5 mm 0.00 in0.0 mm 0.03 in0.8 mm
02:10 PM 58.8°F14.9°C 53.4°F11.9°C 82% 8.1 mph WSW13.0 kmh WSW 18.8 mph30.3 kmh 30.03 in1016.9 mb 0.02 in0.5 mm 0.00 in0.0 mm 0.03 in0.8 mm
02:05 PM 58.2°F14.6°C 53.1°F11.7°C 83% 9.0 mph WSW14.5 kmh WSW 22.4 mph36.0 kmh 30.03 in1016.9 mb 0.02 in0.5 mm 0.00 in0.0 mm 0.03 in0.8 mm
02:00 PM 57.9°F14.4°C 53.1°F11.7°C 84% 9.9 mph W15.9 kmh W 24.2 mph38.9 kmh 30.03 in1016.9 mb 0.02 in0.5 mm 0.00 in0.0 mm 0.03 in0.8 mm
01:55 PM 58.8°F14.9°C 53.4°F11.9°C 82% 9.4 mph WSW15.1 kmh WSW 24.2 mph38.9 kmh 30.03 in1016.9 mb 0.02 in0.5 mm 0.00 in0.0 mm 0.03 in0.8 mm
01:50 PM 60.0°F15.6°C 53.5°F11.9°C 79% 9.0 mph WSW14.5 kmh WSW 21.5 mph34.6 kmh 30.03 in1016.9 mb 0.02 in0.5 mm 0.00 in0.0 mm 0.03 in0.8 mm
01:45 PM 60.2°F15.7°C 55.1°F12.8°C 83% 9.0 mph W14.5 kmh W 19.7 mph31.7 kmh 30.03 in1016.9 mb 0.02 in0.5 mm 0.00 in0.0 mm 0.03 in0.8 mm
01:40 PM 59.7°F15.4°C 55.5°F13.1°C 86% 8.5 mph W13.7 kmh W 19.7 mph31.7 kmh 30.03 in1016.9 mb 0.02 in0.5 mm 0.00 in0.0 mm 0.03 in0.8 mm
01:35 PM 58.8°F14.9°C 55.6°F13.1°C 89% 8.1 mph WNW13.0 kmh WNW 17.9 mph28.8 kmh 30.04 in1017.3 mb 0.02 in0.5 mm 0.00 in0.0 mm 0.03 in0.8 mm
01:30 PM 57.7°F14.3°C 54.8°F12.7°C 90% 8.5 mph WNW13.7 kmh WNW 20.6 mph33.2 kmh 30.04 in1017.3 mb 0.02 in0.5 mm 0.00 in0.0 mm 0.03 in0.8 mm
01:25 PM 57.0°F13.9°C 53.8°F12.1°C 89% 9.4 mph WNW15.1 kmh WNW 21.5 mph34.6 kmh 30.04 in1017.3 mb 0.02 in0.5 mm 0.12 in3.0 mm 0.03 in0.8 mm
01:20 PM 57.3°F14.1°C 53.5°F11.9°C 87% 9.4 mph WNW15.1 kmh WNW 21.5 mph34.6 kmh 30.05 in1017.6 mb 0.01 in0.3 mm 0.12 in3.0 mm 0.02 in0.5 mm
01:15 PM 58.6°F14.8°C 53.5°F11.9°C 83% 9.0 mph WNW14.5 kmh WNW 18.8 mph30.3 kmh 30.05 in1017.6 mb 0.00 in0.0 mm 0.00 in0.0 mm 0.02 in0.5 mm
01:10 PM 58.8°F14.9°C 53.4°F11.9°C 82% 8.5 mph WNW13.7 kmh WNW 20.2 mph32.5 kmh 30.04 in1017.3 mb 0.00 in0.0 mm 0.00 in0.0 mm 0.02 in0.5 mm
01:05 PM 58.6°F14.8°C 53.2°F11.8°C 82% 9.0 mph WNW14.5 kmh WNW 20.2 mph32.5 kmh 30.05 in1017.6 mb 0.00 in0.0 mm 0.00 in0.0 mm 0.02 in0.5 mm
01:00 PM 58.6°F14.8°C 53.2°F11.8°C 82% 9.4 mph NW15.1 kmh NW 22.8 mph36.7 kmh 30.05 in1017.6 mb 0.00 in0.0 mm 0.00 in0.0 mm 0.02 in0.5 mm
12:55 PM 58.6°F14.8°C 53.5°F11.9°C 83% 9.0 mph NW14.5 kmh NW 22.8 mph36.7 kmh 30.05 in1017.6 mb 0.00 in0.0 mm 0.00 in0.0 mm 0.02 in0.5 mm
12:50 PM 58.6°F14.8°C 53.8°F12.1°C 84% 8.5 mph WNW13.7 kmh WNW 22.0 mph35.4 kmh 30.06 in1017.9 mb 0.00 in0.0 mm 0.00 in0.0 mm 0.02 in0.5 mm
12:45 PM 57.7°F14.3°C 53.6°F12.0°C 86% 8.5 mph WNW13.7 kmh WNW 20.6 mph33.2 kmh 30.05 in1017.6 mb 0.00 in0.0 mm 0.00 in0.0 mm 0.02 in0.5 mm
12:40 PM 57.5°F14.2°C 53.1°F11.7°C 85% 9.4 mph NW15.1 kmh NW 20.6 mph33.2 kmh 30.05 in1017.6 mb 0.00 in0.0 mm 0.00 in0.0 mm 0.02 in0.5 mm
12:35 PM 58.1°F14.5°C 53.0°F11.7°C 83% 9.9 mph NW15.9 kmh NW 21.5 mph34.6 kmh 30.06 in1017.9 mb 0.00 in0.0 mm 0.00 in0.0 mm 0.02 in0.5 mm
12:30 PM 58.4°F14.7°C 53.0°F11.7°C 82% 9.4 mph WNW15.1 kmh WNW 21.5 mph34.6 kmh 30.06 in1017.9 mb 0.00 in0.0 mm 0.00 in0.0 mm 0.02 in0.5 mm
12:25 PM 58.8°F14.9°C 54.0°F12.2°C 84% 9.0 mph WNW14.5 kmh WNW 20.2 mph32.5 kmh 30.06 in1017.9 mb 0.00 in0.0 mm 0.00 in0.0 mm 0.02 in0.5 mm
12:20 PM 58.8°F14.9°C 53.7°F12.1°C 83% 8.5 mph WNW13.7 kmh WNW 19.7 mph31.7 kmh 30.06 in1017.9 mb 0.00 in0.0 mm 0.00 in0.0 mm 0.02 in0.5 mm
12:15 PM 59.9°F15.5°C 54.1°F12.3°C 81% 9.0 mph NW14.5 kmh NW 19.7 mph31.7 kmh 30.06 in1017.9 mb 0.00 in0.0 mm 0.00 in0.0 mm 0.02 in0.5 mm
12:10 PM 60.0°F15.6°C 53.8°F12.1°C 80% 10.3 mph WNW16.6 kmh WNW 22.8 mph36.7 kmh 30.05 in1017.6 mb 0.00 in0.0 mm 0.00 in0.0 mm 0.02 in0.5 mm
12:05 PM 59.0°F15.0°C 53.2°F11.8°C 81% 10.8 mph WNW17.4 kmh WNW 22.8 mph36.7 kmh 30.06 in1017.9 mb 0.00 in0.0 mm 0.00 in0.0 mm 0.02 in0.5 mm
12:00 PM 59.1°F15.1°C 54.0°F12.2°C 83% 9.9 mph WNW15.9 kmh WNW 20.6 mph33.2 kmh 30.06 in1017.9 mb 0.00 in0.0 mm 0.00 in0.0 mm 0.02 in0.5 mm
11:55 AM 58.6°F14.8°C 53.8°F12.1°C 84% 11.2 mph NW18.0 kmh NW 23.3 mph37.5 kmh 30.06 in1017.9 mb 0.00 in0.0 mm 0.00 in0.0 mm 0.02 in0.5 mm
11:50 AM 57.3°F14.1°C 53.5°F11.9°C 87% 12.5 mph NW20.1 kmh NW 23.3 mph37.5 kmh 30.06 in1017.9 mb 0.00 in0.0 mm 0.00 in0.0 mm 0.02 in0.5 mm
11:45 AM 58.1°F14.5°C 53.3°F11.8°C 84% 12.5 mph NW20.1 kmh NW 31.4 mph50.5 kmh 30.06 in1017.9 mb 0.00 in0.0 mm 0.00 in0.0 mm 0.02 in0.5 mm
11:40 AM 58.6°F14.8°C 52.1°F11.2°C 79% 12.1 mph NW19.5 kmh NW 31.4 mph50.5 kmh 30.05 in1017.6 mb 0.00 in0.0 mm 0.00 in0.0 mm 0.02 in0.5 mm
11:35 AM 58.6°F14.8°C 52.5°F11.4°C 80% 12.1 mph NW19.5 kmh NW 25.5 mph41.0 kmh 30.06 in1017.9 mb 0.00 in0.0 mm 0.00 in0.0 mm 0.02 in0.5 mm
11:30 AM 59.0°F15.0°C 52.9°F11.6°C 80% 10.8 mph NW17.4 kmh NW 25.5 mph41.0 kmh 30.06 in1017.9 mb 0.00 in0.0 mm 0.00 in0.0 mm 0.02 in0.5 mm
11:25 AM 59.5°F15.3°C 53.7°F12.1°C 81% 10.3 mph NW16.6 kmh NW 24.6 mph39.6 kmh 30.06 in1017.9 mb 0.00 in0.0 mm 0.00 in0.0 mm 0.02 in0.5 mm
11:20 AM 58.4°F14.7°C 53.0°F11.7°C 82% 9.9 mph NW15.9 kmh NW 30.0 mph48.3 kmh 30.07 in1018.3 mb 0.00 in0.0 mm 0.00 in0.0 mm 0.02 in0.5 mm
11:15 AM 58.2°F14.6°C 53.4°F11.9°C 84% 11.2 mph NW18.0 kmh NW 30.0 mph48.3 kmh 30.07 in1018.3 mb 0.00 in0.0 mm 0.00 in0.0 mm 0.02 in0.5 mm
11:10 AM 57.0°F13.9°C 52.6°F11.4°C 85% 12.5 mph NW20.1 kmh NW 26.4 mph42.5 kmh 30.06 in1017.9 mb 0.00 in0.0 mm 0.00 in0.0 mm 0.02 in0.5 mm
11:05 AM 57.2°F14.0°C 52.8°F11.6°C 85% 12.1 mph NW19.5 kmh NW 26.4 mph42.5 kmh 30.07 in1018.3 mb 0.00 in0.0 mm 0.00 in0.0 mm 0.02 in0.5 mm
11:00 AM 56.8°F13.8°C 53.0°F11.7°C 87% 11.6 mph NW18.7 kmh NW 22.4 mph36.0 kmh 30.07 in1018.3 mb 0.00 in0.0 mm 0.00 in0.0 mm 0.02 in0.5 mm
10:55 AM 57.2°F14.0°C 53.1°F11.7°C 86% 10.8 mph NW17.4 kmh NW 26.9 mph43.3 kmh 30.07 in1018.3 mb 0.00 in0.0 mm 0.00 in0.0 mm 0.02 in0.5 mm
10:50 AM 57.5°F14.2°C 53.1°F11.7°C 85% 9.9 mph NW15.9 kmh NW 26.9 mph43.3 kmh 30.07 in1018.3 mb 0.00 in0.0 mm 0.00 in0.0 mm 0.02 in0.5 mm
10:45 AM 57.5°F14.2°C 52.7°F11.5°C 84% 9.9 mph NW15.9 kmh NW 27.8 mph44.7 kmh 30.07 in1018.3 mb 0.00 in0.0 mm 0.00 in0.0 mm 0.02 in0.5 mm
10:40 AM 57.3°F14.1°C 52.5°F11.4°C 84% 10.3 mph NW16.6 kmh NW 27.8 mph44.7 kmh 30.07 in1018.3 mb 0.00 in0.0 mm 0.00 in0.0 mm 0.02 in0.5 mm
10:35 AM 57.5°F14.2°C 53.1°F11.7°C 85% 10.8 mph NW17.4 kmh NW 26.0 mph41.8 kmh 30.07 in1018.3 mb 0.00 in0.0 mm 0.00 in0.0 mm 0.02 in0.5 mm
10:30 AM 57.5°F14.2°C 53.1°F11.7°C 85% 10.3 mph NW16.6 kmh NW 26.0 mph41.8 kmh 30.07 in1018.3 mb 0.00 in0.0 mm 0.00 in0.0 mm 0.02 in0.5 mm
10:25 AM 57.7°F14.3°C 53.6°F12.0°C 86% 9.0 mph NW14.5 kmh NW 20.6 mph33.2 kmh 30.07 in1018.3 mb 0.00 in0.0 mm 0.00 in0.0 mm 0.02 in0.5 mm
10:20 AM 56.6°F13.7°C 52.8°F11.6°C 87% 9.4 mph NW15.1 kmh NW 21.1 mph34.0 kmh 30.07 in1018.3 mb 0.00 in0.0 mm 0.00 in0.0 mm 0.02 in0.5 mm
10:15 AM 57.0°F13.9°C 52.9°F11.6°C 86% 10.3 mph NW16.6 kmh NW 22.0 mph35.4 kmh 30.07 in1018.3 mb 0.00 in0.0 mm 0.00 in0.0 mm 0.02 in0.5 mm
10:10 AM 56.8°F13.8°C 52.7°F11.5°C 86% 9.4 mph NW15.1 kmh NW 22.0 mph35.4 kmh 30.07 in1018.3 mb 0.00 in0.0 mm 0.00 in0.0 mm 0.02 in0.5 mm
10:05 AM 56.8°F13.8°C 53.0°F11.7°C 87% 8.5 mph NW13.7 kmh NW 21.5 mph34.6 kmh 30.07 in1018.3 mb 0.00 in0.0 mm 0.00 in0.0 mm 0.02 in0.5 mm
10:00 AM 55.9°F13.3°C 52.7°F11.5°C 89% 8.5 mph NW13.7 kmh NW 17.9 mph28.8 kmh 30.07 in1018.3 mb 0.00 in0.0 mm 0.00 in0.0 mm 0.02 in0.5 mm
09:55 AM 55.4°F13.0°C 52.6°F11.4°C 90% 9.4 mph NW15.1 kmh NW 19.3 mph31.1 kmh 30.08 in1018.6 mb 0.00 in0.0 mm 0.00 in0.0 mm 0.02 in0.5 mm
09:50 AM 54.8°F12.7°C 52.0°F11.1°C 90% 9.4 mph NW15.1 kmh NW 19.3 mph31.1 kmh 30.08 in1018.6 mb 0.00 in0.0 mm 0.00 in0.0 mm 0.02 in0.5 mm
09:45 AM 55.0°F12.8°C 52.5°F11.4°C 91% 9.0 mph NW14.5 kmh NW 17.5 mph28.2 kmh 30.09 in1019.0 mb 0.00 in0.0 mm 0.00 in0.0 mm 0.02 in0.5 mm
09:40 AM 55.2°F12.9°C 53.0°F11.7°C 92% 8.5 mph NW13.7 kmh NW 20.6 mph33.2 kmh 30.08 in1018.6 mb 0.00 in0.0 mm 0.00 in0.0 mm 0.02 in0.5 mm
09:35 AM 54.6°F12.6°C 52.4°F11.3°C 92% 7.6 mph NW12.2 kmh NW 20.6 mph33.2 kmh 30.08 in1018.6 mb 0.00 in0.0 mm 0.00 in0.0 mm 0.02 in0.5 mm
09:30 AM 54.6°F12.6°C 52.4°F11.3°C 92% 7.2 mph NW11.6 kmh NW 14.3 mph23.0 kmh 30.09 in1019.0 mb 0.00 in0.0 mm 0.00 in0.0 mm 0.02 in0.5 mm
09:25 AM 54.3°F12.4°C 52.1°F11.2°C 92% 8.1 mph NW13.0 kmh NW 16.6 mph26.7 kmh 30.09 in1019.0 mb 0.01 in0.3 mm 0.00 in0.0 mm 0.02 in0.5 mm
09:20 AM 54.5°F12.5°C 52.3°F11.3°C 92% 8.5 mph NW13.7 kmh NW 17.5 mph28.2 kmh 30.09 in1019.0 mb 0.01 in0.3 mm 0.00 in0.0 mm 0.02 in0.5 mm
09:15 AM 54.1°F12.3°C 51.9°F11.1°C 92% 8.1 mph NNW13.0 kmh NNW 18.8 mph30.3 kmh 30.09 in1019.0 mb 0.01 in0.3 mm 0.00 in0.0 mm 0.02 in0.5 mm
09:10 AM 54.6°F12.6°C 51.8°F11.0°C 90% 8.1 mph NNW13.0 kmh NNW 18.8 mph30.3 kmh 30.09 in1019.0 mb 0.01 in0.3 mm 0.00 in0.0 mm 0.02 in0.5 mm
09:05 AM 55.4°F13.0°C 52.9°F11.6°C 91% 7.6 mph NW12.2 kmh NW 17.9 mph28.8 kmh 30.09 in1019.0 mb 0.01 in0.3 mm 0.00 in0.0 mm 0.02 in0.5 mm
09:00 AM 54.3°F12.4°C 52.1°F11.2°C 92% 7.6 mph NW12.2 kmh NW 17.9 mph28.8 kmh 30.09 in1019.0 mb 0.01 in0.3 mm 0.00 in0.0 mm 0.02 in0.5 mm
08:55 AM 53.9°F12.2°C 51.7°F10.9°C 92% 6.7 mph NW10.8 kmh NW 16.6 mph26.7 kmh 30.09 in1019.0 mb 0.01 in0.3 mm 0.00 in0.0 mm 0.02 in0.5 mm
08:50 AM 53.6°F12.0°C 51.7°F10.9°C 93% 6.3 mph NW10.1 kmh NW 17.5 mph28.2 kmh 30.09 in1019.0 mb 0.01 in0.3 mm 0.00 in0.0 mm 0.02 in0.5 mm
08:45 AM 53.2°F11.8°C 51.3°F10.7°C 93% 6.3 mph NW10.1 kmh NW 17.5 mph28.2 kmh 30.09 in1019.0 mb 0.01 in0.3 mm 0.00 in0.0 mm 0.02 in0.5 mm
08:40 AM 53.2°F11.8°C 51.3°F10.7°C 93% 6.3 mph NW10.1 kmh NW 13.4 mph21.6 kmh 30.09 in1019.0 mb 0.01 in0.3 mm 0.00 in0.0 mm 0.02 in0.5 mm
08:35 AM 52.8°F11.6°C 50.9°F10.5°C 93% 6.3 mph NW10.1 kmh NW 13.4 mph21.6 kmh 30.09 in1019.0 mb 0.01 in0.3 mm 0.00 in0.0 mm 0.02 in0.5 mm
08:30 AM 52.7°F11.5°C 50.8°F10.4°C 93% 6.3 mph NW10.1 kmh NW 13.4 mph21.6 kmh 30.09 in1019.0 mb 0.01 in0.3 mm 0.12 in3.0 mm 0.02 in0.5 mm
08:25 AM 52.5°F11.4°C 50.6°F10.3°C 93% 6.7 mph NW10.8 kmh NW 13.9 mph22.4 kmh 30.09 in1019.0 mb 0.00 in0.0 mm 0.00 in0.0 mm 0.01 in0.3 mm
08:20 AM 52.7°F11.5°C 50.8°F10.4°C 93% 6.3 mph NW10.1 kmh NW 20.6 mph33.2 kmh 30.09 in1019.0 mb 0.00 in0.0 mm 0.00 in0.0 mm 0.01 in0.3 mm
08:15 AM 52.5°F11.4°C 50.6°F10.3°C 93% 6.3 mph NW10.1 kmh NW 20.6 mph33.2 kmh 30.09 in1019.0 mb 0.00 in0.0 mm 0.00 in0.0 mm 0.01 in0.3 mm
08:10 AM 52.3°F11.3°C 50.4°F10.2°C 93% 6.7 mph NW10.8 kmh NW 15.2 mph24.5 kmh 30.09 in1019.0 mb 0.00 in0.0 mm 0.00 in0.0 mm 0.01 in0.3 mm
08:05 AM 52.3°F11.3°C 50.4°F10.2°C 93% 6.7 mph NW10.8 kmh NW 19.7 mph31.7 kmh 30.08 in1018.6 mb 0.00 in0.0 mm 0.00 in0.0 mm 0.01 in0.3 mm
08:00 AM 52.3°F11.3°C 50.4°F10.2°C 93% 6.3 mph NW10.1 kmh NW 19.7 mph31.7 kmh 30.08 in1018.6 mb 0.00 in0.0 mm 0.00 in0.0 mm 0.01 in0.3 mm
07:55 AM 52.5°F11.4°C 50.6°F10.3°C 93% 6.3 mph NW10.1 kmh NW 14.8 mph23.8 kmh 30.08 in1018.6 mb 0.00 in0.0 mm 0.00 in0.0 mm 0.01 in0.3 mm
07:50 AM 52.3°F11.3°C 50.7°F10.4°C 94% 6.3 mph NNW10.1 kmh NNW 14.8 mph23.8 kmh 30.08 in1018.6 mb 0.00 in0.0 mm 0.00 in0.0 mm 0.01 in0.3 mm
07:45 AM 51.9°F11.1°C 50.3°F10.2°C 94% 5.4 mph NNW8.7 kmh NNW 11.6 mph18.7 kmh 30.08 in1018.6 mb 0.01 in0.3 mm 0.00 in0.0 mm 0.01 in0.3 mm
07:40 AM 51.8°F11.0°C 50.2°F10.1°C 94% 5.4 mph NNW8.7 kmh NNW 13.4 mph21.6 kmh 30.08 in1018.6 mb 0.01 in0.3 mm 0.00 in0.0 mm 0.01 in0.3 mm
07:35 AM 51.8°F11.0°C 50.2°F10.1°C 94% 5.8 mph NW9.3 kmh NW 13.4 mph21.6 kmh 30.07 in1018.3 mb 0.01 in0.3 mm 0.00 in0.0 mm 0.01 in0.3 mm
07:30 AM 51.6°F10.9°C 50.0°F10.0°C 94% 5.8 mph NW9.3 kmh NW 12.1 mph19.5 kmh 30.07 in1018.3 mb 0.01 in0.3 mm 0.00 in0.0 mm 0.01 in0.3 mm
07:25 AM 51.4°F10.8°C 50.1°F10.1°C 95% 5.4 mph NW8.7 kmh NW 11.6 mph18.7 kmh 30.07 in1018.3 mb 0.01 in0.3 mm 0.00 in0.0 mm 0.01 in0.3 mm
07:20 AM 51.2°F10.7°C 49.9°F9.9°C 95% 5.4 mph NW8.7 kmh NW 11.6 mph18.7 kmh 30.07 in1018.3 mb 0.01 in0.3 mm 0.00 in0.0 mm 0.01 in0.3 mm
07:15 AM 51.2°F10.7°C 49.9°F9.9°C 95% 5.8 mph NNW9.3 kmh NNW 13.0 mph20.9 kmh 30.07 in1018.3 mb 0.01 in0.3 mm 0.00 in0.0 mm 0.01 in0.3 mm
07:10 AM 51.2°F10.7°C 49.9°F9.9°C 95% 4.9 mph NW7.9 kmh NW 13.0 mph20.9 kmh 30.08 in1018.6 mb 0.01 in0.3 mm 0.00 in0.0 mm 0.01 in0.3 mm
07:05 AM 51.2°F10.7°C 49.9°F9.9°C 95% 5.4 mph NW8.7 kmh NW 12.5 mph20.1 kmh 30.07 in1018.3 mb 0.01 in0.3 mm 0.00 in0.0 mm 0.01 in0.3 mm
07:00 AM 51.2°F10.7°C 49.9°F9.9°C 95% 6.7 mph NW10.8 kmh NW 15.7 mph25.3 kmh 30.08 in1018.6 mb 0.01 in0.3 mm 0.00 in0.0 mm 0.01 in0.3 mm
06:55 AM 51.2°F10.7°C 49.9°F9.9°C 95% 5.8 mph NW9.3 kmh NW 15.7 mph25.3 kmh 30.07 in1018.3 mb 0.01 in0.3 mm 0.00 in0.0 mm 0.01 in0.3 mm
06:50 AM 51.0°F10.6°C 49.7°F9.8°C 95% 5.4 mph NW8.7 kmh NW 15.2 mph24.5 kmh 30.07 in1018.3 mb 0.01 in0.3 mm 0.12 in3.0 mm 0.01 in0.3 mm
06:45 AM 51.0°F10.6°C 49.7°F9.8°C 95% 6.3 mph NW10.1 kmh NW 14.3 mph23.0 kmh 30.07 in1018.3 mb 0.00 in0.0 mm 0.00 in0.0 mm 0.00 in0.0 mm
06:40 AM 51.0°F10.6°C 49.7°F9.8°C 95% 5.8 mph NNW9.3 kmh NNW 14.3 mph23.0 kmh 30.07 in1018.3 mb 0.00 in0.0 mm 0.00 in0.0 mm 0.00 in0.0 mm
06:35 AM 50.9°F10.5°C 49.6°F9.8°C 95% 4.9 mph NNW7.9 kmh NNW 13.0 mph20.9 kmh 30.07 in1018.3 mb 0.00 in0.0 mm 0.00 in0.0 mm 0.00 in0.0 mm
06:30 AM 50.9°F10.5°C 49.6°F9.8°C 95% 5.4 mph NNW8.7 kmh NNW 10.8 mph17.4 kmh 30.07 in1018.3 mb 0.00 in0.0 mm 0.00 in0.0 mm 0.00 in0.0 mm
06:25 AM 51.0°F10.6°C 49.7°F9.8°C 95% 5.4 mph NNW8.7 kmh NNW 13.9 mph22.4 kmh 30.07 in1018.3 mb 0.00 in0.0 mm 0.00 in0.0 mm 0.00 in0.0 mm
06:20 AM 51.0°F10.6°C 49.7°F9.8°C 95% 5.8 mph NNW9.3 kmh NNW 15.2 mph24.5 kmh 30.07 in1018.3 mb 0.00 in0.0 mm 0.00 in0.0 mm 0.00 in0.0 mm
06:15 AM 51.0°F10.6°C 49.7°F9.8°C 95% 6.3 mph NNW10.1 kmh NNW 15.2 mph24.5 kmh 30.07 in1018.3 mb 0.00 in0.0 mm 0.00 in0.0 mm 0.00 in0.0 mm
06:10 AM 51.0°F10.6°C 49.4°F9.7°C 94% 5.8 mph NNW9.3 kmh NNW 15.2 mph24.5 kmh 30.07 in1018.3 mb 0.00 in0.0 mm 0.00 in0.0 mm 0.00 in0.0 mm
06:05 AM 51.0°F10.6°C 49.4°F9.7°C 94% 6.7 mph NNW10.8 kmh NNW 15.2 mph24.5 kmh 30.07 in1018.3 mb 0.00 in0.0 mm 0.00 in0.0 mm 0.00 in0.0 mm
06:00 AM 51.0°F10.6°C 49.4°F9.7°C 94% 6.3 mph NNW10.1 kmh NNW 19.7 mph31.7 kmh 30.07 in1018.3 mb 0.00 in0.0 mm 0.00 in0.0 mm 0.00 in0.0 mm
05:55 AM 51.2°F10.7°C 49.3°F9.6°C 93% 5.4 mph NNW8.7 kmh NNW 19.7 mph31.7 kmh 30.08 in1018.6 mb 0.00 in0.0 mm 0.00 in0.0 mm 0.00 in0.0 mm
05:50 AM 51.4°F10.8°C 49.5°F9.7°C 93% 5.4 mph NNW8.7 kmh NNW 13.9 mph22.4 kmh 30.08 in1018.6 mb 0.00 in0.0 mm 0.00 in0.0 mm 0.00 in0.0 mm
05:45 AM 51.4°F10.8°C 49.2°F9.6°C 92% 5.4 mph NNW8.7 kmh NNW 13.9 mph22.4 kmh 30.07 in1018.3 mb 0.00 in0.0 mm 0.00 in0.0 mm 0.00 in0.0 mm
05:40 AM 51.4°F10.8°C 49.2°F9.6°C 92% 5.4 mph NNW8.7 kmh NNW 11.2 mph18.0 kmh 30.07 in1018.3 mb 0.00 in0.0 mm 0.00 in0.0 mm 0.00 in0.0 mm
05:35 AM 51.2°F10.7°C 49.0°F9.4°C 92% 5.4 mph NNW8.7 kmh NNW 11.2 mph18.0 kmh 30.07 in1018.3 mb 0.00 in0.0 mm 0.00 in0.0 mm 0.00 in0.0 mm
05:30 AM 51.4°F10.8°C 49.2°F9.6°C 92% 5.4 mph NNW8.7 kmh NNW 11.2 mph18.0 kmh 30.07 in1018.3 mb 0.00 in0.0 mm 0.00 in0.0 mm 0.00 in0.0 mm
05:25 AM 51.4°F10.8°C 49.2°F9.6°C 92% 5.4 mph NNW8.7 kmh NNW 13.0 mph20.9 kmh 30.07 in1018.3 mb 0.00 in0.0 mm 0.00 in0.0 mm 0.00 in0.0 mm
05:20 AM 51.4°F10.8°C 49.2°F9.6°C 92% 5.4 mph NNW8.7 kmh NNW 13.0 mph20.9 kmh 30.07 in1018.3 mb 0.00 in0.0 mm 0.00 in0.0 mm 0.00 in0.0 mm
05:15 AM 51.6°F10.9°C 49.4°F9.7°C 92% 5.4 mph NW8.7 kmh NW 13.9 mph22.4 kmh 30.08 in1018.6 mb 0.00 in0.0 mm 0.00 in0.0 mm 0.00 in0.0 mm
05:10 AM 51.8°F11.0°C 49.6°F9.8°C 92% 6.3 mph NNW10.1 kmh NNW 18.8 mph30.3 kmh 30.07 in1018.3 mb 0.00 in0.0 mm 0.00 in0.0 mm 0.00 in0.0 mm
05:05 AM 51.8°F11.0°C 49.3°F9.6°C 91% 6.3 mph NNW10.1 kmh NNW 18.8 mph30.3 kmh 30.08 in1018.6 mb 0.00 in0.0 mm 0.00 in0.0 mm 0.00 in0.0 mm
05:00 AM 52.1°F11.2°C 49.3°F9.6°C 90% 5.8 mph NW9.3 kmh NW 13.0 mph20.9 kmh 30.08 in1018.6 mb 0.00 in0.0 mm 0.00 in0.0 mm 0.00 in0.0 mm
04:55 AM 52.1°F11.2°C 49.3°F9.6°C 90% 5.8 mph NW9.3 kmh NW 13.4 mph21.6 kmh 30.08 in1018.6 mb 0.00 in0.0 mm 0.00 in0.0 mm 0.00 in0.0 mm
04:50 AM 51.9°F11.1°C 49.4°F9.7°C 91% 4.9 mph NW7.9 kmh NW 13.4 mph21.6 kmh 30.08 in1018.6 mb 0.00 in0.0 mm 0.00 in0.0 mm 0.00 in0.0 mm
04:45 AM 51.9°F11.1°C 49.7°F9.8°C 92% 3.6 mph NW5.8 kmh NW 8.5 mph13.7 kmh 30.08 in1018.6 mb 0.00 in0.0 mm 0.00 in0.0 mm 0.00 in0.0 mm
04:40 AM 51.9°F11.1°C 49.7°F9.8°C 92% 4.0 mph NW6.4 kmh NW 9.0 mph14.5 kmh 30.08 in1018.6 mb 0.00 in0.0 mm 0.00 in0.0 mm 0.00 in0.0 mm
04:35 AM 51.8°F11.0°C 49.6°F9.8°C 92% 4.0 mph NW6.4 kmh NW 9.0 mph14.5 kmh 30.08 in1018.6 mb 0.00 in0.0 mm 0.00 in0.0 mm 0.00 in0.0 mm
04:30 AM 51.8°F11.0°C 49.9°F9.9°C 93% 4.9 mph NW7.9 kmh NW 14.3 mph23.0 kmh 30.08 in1018.6 mb 0.00 in0.0 mm 0.00 in0.0 mm 0.00 in0.0 mm
04:25 AM 51.8°F11.0°C 49.9°F9.9°C 93% 5.4 mph NW8.7 kmh NW 14.3 mph23.0 kmh 30.08 in1018.6 mb 0.00 in0.0 mm 0.00 in0.0 mm 0.00 in0.0 mm
04:20 AM 51.8°F11.0°C 49.9°F9.9°C 93% 5.4 mph NW8.7 kmh NW 13.0 mph20.9 kmh 30.08 in1018.6 mb 0.00 in0.0 mm 0.00 in0.0 mm 0.00 in0.0 mm
04:15 AM 51.8°F11.0°C 49.9°F9.9°C 93% 4.9 mph NW7.9 kmh NW 13.0 mph20.9 kmh 30.08 in1018.6 mb 0.00 in0.0 mm 0.00 in0.0 mm 0.00 in0.0 mm
04:10 AM 51.8°F11.0°C 49.9°F9.9°C 93% 4.9 mph NW7.9 kmh NW 11.2 mph18.0 kmh 30.08 in1018.6 mb 0.00 in0.0 mm 0.00 in0.0 mm 0.00 in0.0 mm
04:05 AM 51.9°F11.1°C 50.0°F10.0°C 93% 5.4 mph NW8.7 kmh NW 13.0 mph20.9 kmh 30.09 in1019.0 mb 0.00 in0.0 mm 0.00 in0.0 mm 0.00 in0.0 mm
04:00 AM 52.1°F11.2°C 49.9°F9.9°C 92% 4.9 mph NW7.9 kmh NW 13.0 mph20.9 kmh 30.09 in1019.0 mb 0.00 in0.0 mm 0.00 in0.0 mm 0.00 in0.0 mm
03:55 AM 52.3°F11.3°C 49.8°F9.9°C 91% 4.5 mph NW7.2 kmh NW 10.3 mph16.6 kmh 30.09 in1019.0 mb 0.00 in0.0 mm 0.00 in0.0 mm 0.00 in0.0 mm
03:50 AM 52.3°F11.3°C 49.8°F9.9°C 91% 4.5 mph NW7.2 kmh NW 10.8 mph17.4 kmh 30.09 in1019.0 mb 0.00 in0.0 mm 0.00 in0.0 mm 0.00 in0.0 mm
03:45 AM 52.3°F11.3°C 49.8°F9.9°C 91% 4.9 mph NW7.9 kmh NW 10.8 mph17.4 kmh 30.09 in1019.0 mb 0.00 in0.0 mm 0.00 in0.0 mm 0.00 in0.0 mm
03:40 AM 52.5°F11.4°C 49.7°F9.8°C 90% 5.4 mph NW8.7 kmh NW 10.8 mph17.4 kmh 30.09 in1019.0 mb 0.00 in0.0 mm 0.00 in0.0 mm 0.00 in0.0 mm
03:35 AM 52.8°F11.6°C 49.7°F9.8°C 89% 6.7 mph NW10.8 kmh NW 16.1 mph25.9 kmh 30.09 in1019.0 mb 0.00 in0.0 mm 0.00 in0.0 mm 0.00 in0.0 mm
03:30 AM 53.4°F11.9°C 49.7°F9.8°C 87% 7.6 mph NW12.2 kmh NW 20.2 mph32.5 kmh 30.10 in1019.3 mb 0.00 in0.0 mm 0.00 in0.0 mm 0.00 in0.0 mm
03:25 AM 53.9°F12.2°C 48.9°F9.4°C 83% 7.6 mph NW12.2 kmh NW 20.2 mph32.5 kmh 30.10 in1019.3 mb 0.00 in0.0 mm 0.00 in0.0 mm 0.00 in0.0 mm
03:20 AM 54.1°F12.3°C 49.1°F9.5°C 83% 6.3 mph NW10.1 kmh NW 15.2 mph24.5 kmh 30.10 in1019.3 mb 0.00 in0.0 mm 0.00 in0.0 mm 0.00 in0.0 mm
03:15 AM 54.1°F12.3°C 48.8°F9.3°C 82% 5.8 mph NW9.3 kmh NW 15.2 mph24.5 kmh 30.10 in1019.3 mb 0.00 in0.0 mm 0.00 in0.0 mm 0.00 in0.0 mm
03:10 AM 53.9°F12.2°C 48.9°F9.4°C 83% 4.5 mph NW7.2 kmh NW 15.2 mph24.5 kmh 30.09 in1019.0 mb 0.00 in0.0 mm 0.00 in0.0 mm 0.00 in0.0 mm
03:05 AM 53.7°F12.1°C 49.0°F9.4°C 84% 4.0 mph NW6.4 kmh NW 7.6 mph12.2 kmh 30.10 in1019.3 mb 0.00 in0.0 mm 0.00 in0.0 mm 0.00 in0.0 mm
03:00 AM 53.7°F12.1°C 49.0°F9.4°C 84% 3.6 mph NW5.8 kmh NW 7.6 mph12.2 kmh 30.09 in1019.0 mb 0.00 in0.0 mm 0.00 in0.0 mm 0.00 in0.0 mm
02:55 AM 53.7°F12.1°C 49.0°F9.4°C 84% 3.6 mph NW5.8 kmh NW 8.1 mph13.0 kmh 30.10 in1019.3 mb 0.00 in0.0 mm 0.00 in0.0 mm 0.00 in0.0 mm
02:50 AM 53.7°F12.1°C 49.0°F9.4°C 84% 3.6 mph NW5.8 kmh NW 8.1 mph13.0 kmh 30.10 in1019.3 mb 0.00 in0.0 mm 0.00 in0.0 mm 0.00 in0.0 mm
02:45 AM 53.7°F12.1°C 49.0°F9.4°C 84% 3.1 mph NW5.0 kmh NW 6.7 mph10.8 kmh 30.10 in1019.3 mb 0.00 in0.0 mm 0.00 in0.0 mm 0.00 in0.0 mm
02:40 AM 53.6°F12.0°C 49.2°F9.6°C 85% 2.7 mph NW4.3 kmh NW 6.7 mph10.8 kmh 30.10 in1019.3 mb 0.00 in0.0 mm 0.00 in0.0 mm 0.00 in0.0 mm
02:35 AM 53.6°F12.0°C 49.2°F9.6°C 85% 2.7 mph NW4.3 kmh NW 5.8 mph9.3 kmh 30.11 in1019.6 mb 0.00 in0.0 mm 0.00 in0.0 mm 0.00 in0.0 mm
02:30 AM 53.6°F12.0°C 49.6°F9.8°C 86% 2.7 mph NW4.3 kmh NW 5.4 mph8.7 kmh 30.11 in1019.6 mb 0.00 in0.0 mm 0.00 in0.0 mm 0.00 in0.0 mm
02:25 AM 53.7°F12.1°C 49.7°F9.8°C 86% 3.1 mph WNW5.0 kmh WNW 7.2 mph11.6 kmh 30.11 in1019.6 mb 0.00 in0.0 mm 0.00 in0.0 mm 0.00 in0.0 mm
02:20 AM 53.7°F12.1°C 49.3°F9.6°C 85% 3.6 mph WNW5.8 kmh WNW 11.2 mph18.0 kmh 30.11 in1019.6 mb 0.00 in0.0 mm 0.00 in0.0 mm 0.00 in0.0 mm
02:15 AM 53.7°F12.1°C 49.3°F9.6°C 85% 4.0 mph WNW6.4 kmh WNW 11.2 mph18.0 kmh 30.12 in1020.0 mb 0.00 in0.0 mm 0.00 in0.0 mm 0.00 in0.0 mm
02:10 AM 53.7°F12.1°C 49.3°F9.6°C 85% 4.5 mph WNW7.2 kmh WNW 9.9 mph15.9 kmh 30.12 in1020.0 mb 0.00 in0.0 mm 0.00 in0.0 mm 0.00 in0.0 mm
02:05 AM 53.7°F12.1°C 49.3°F9.6°C 85% 4.5 mph NW7.2 kmh NW 9.9 mph15.9 kmh 30.12 in1020.0 mb 0.00 in0.0 mm 0.00 in0.0 mm 0.00 in0.0 mm
02:00 AM 53.7°F12.1°C 49.3°F9.6°C 85% 4.0 mph NW6.4 kmh NW 9.0 mph14.5 kmh 30.12 in1020.0 mb 0.00 in0.0 mm 0.00 in0.0 mm 0.00 in0.0 mm
01:55 AM 53.9°F12.2°C 49.5°F9.7°C 85% 3.6 mph NW5.8 kmh NW 8.5 mph13.7 kmh 30.12 in1020.0 mb 0.00 in0.0 mm 0.00 in0.0 mm 0.00 in0.0 mm
01:50 AM 53.9°F12.2°C 49.5°F9.7°C 85% 3.6 mph NW5.8 kmh NW 8.5 mph13.7 kmh 30.11 in1019.6 mb 0.00 in0.0 mm 0.00 in0.0 mm 0.00 in0.0 mm
01:45 AM 53.9°F12.2°C 49.5°F9.7°C 85% 3.1 mph NW5.0 kmh NW 8.5 mph13.7 kmh 30.12 in1020.0 mb 0.00 in0.0 mm 0.00 in0.0 mm 0.00 in0.0 mm
01:40 AM 53.9°F12.2°C 49.5°F9.7°C 85% 3.6 mph NW5.8 kmh NW 9.0 mph14.5 kmh 30.11 in1019.6 mb 0.00 in0.0 mm 0.00 in0.0 mm 0.00 in0.0 mm
01:35 AM 53.9°F12.2°C 49.5°F9.7°C 85% 4.0 mph NW6.4 kmh NW 9.4 mph15.1 kmh 30.12 in1020.0 mb 0.00 in0.0 mm 0.00 in0.0 mm 0.00 in0.0 mm
01:30 AM 53.7°F12.1°C 49.3°F9.6°C 85% 4.0 mph NW6.4 kmh NW 9.4 mph15.1 kmh 30.12 in1020.0 mb 0.00 in0.0 mm 0.00 in0.0 mm 0.00 in0.0 mm
01:25 AM 53.7°F12.1°C 49.7°F9.8°C 86% 3.6 mph NW5.8 kmh NW 9.9 mph15.9 kmh 30.12 in1020.0 mb 0.00 in0.0 mm 0.00 in0.0 mm 0.00 in0.0 mm
01:20 AM 53.7°F12.1°C 49.7°F9.8°C 86% 4.0 mph NW6.4 kmh NW 10.3 mph16.6 kmh 30.12 in1020.0 mb 0.00 in0.0 mm 0.00 in0.0 mm 0.00 in0.0 mm
01:15 AM 53.7°F12.1°C 50.0°F10.0°C 87% 4.0 mph NW6.4 kmh NW 10.3 mph16.6 kmh 30.12 in1020.0 mb 0.00 in0.0 mm 0.00 in0.0 mm 0.00 in0.0 mm
01:10 AM 53.6°F12.0°C 50.2°F10.1°C 88% 4.0 mph NNW6.4 kmh NNW 8.5 mph13.7 kmh 30.13 in1020.3 mb 0.00 in0.0 mm 0.00 in0.0 mm 0.00 in0.0 mm
01:05 AM 53.6°F12.0°C 50.2°F10.1°C 88% 3.6 mph NNW5.8 kmh NNW 9.4 mph15.1 kmh 30.13 in1020.3 mb 0.00 in0.0 mm 0.00 in0.0 mm 0.00 in0.0 mm
01:00 AM 53.6°F12.0°C 50.2°F10.1°C 88% 3.6 mph NW5.8 kmh NW 9.4 mph15.1 kmh 30.13 in1020.3 mb 0.00 in0.0 mm 0.00 in0.0 mm 0.00 in0.0 mm
12:55 AM 53.6°F12.0°C 50.2°F10.1°C 88% 3.6 mph NW5.8 kmh NW 8.1 mph13.0 kmh 30.13 in1020.3 mb 0.00 in0.0 mm 0.00 in0.0 mm 0.00 in0.0 mm
12:50 AM 53.6°F12.0°C 50.2°F10.1°C 88% 4.0 mph NW6.4 kmh NW 11.2 mph18.0 kmh 30.13 in1020.3 mb 0.00 in0.0 mm 0.00 in0.0 mm 0.00 in0.0 mm
12:45 AM 53.7°F12.1°C 50.3°F10.2°C 88% 4.5 mph NW7.2 kmh NW 11.2 mph18.0 kmh 30.14 in1020.7 mb 0.00 in0.0 mm 0.00 in0.0 mm 0.00 in0.0 mm
12:40 AM 53.9°F12.2°C 50.2°F10.1°C 87% 4.9 mph NW7.9 kmh NW 13.4 mph21.6 kmh 30.14 in1020.7 mb 0.00 in0.0 mm 0.00 in0.0 mm 0.00 in0.0 mm
12:35 AM 54.3°F12.4°C 50.2°F10.1°C 86% 5.4 mph NW8.7 kmh NW 13.4 mph21.6 kmh 30.14 in1020.7 mb 0.00 in0.0 mm 0.00 in0.0 mm 0.00 in0.0 mm
12:30 AM 54.5°F12.5°C 49.8°F9.9°C 84% 5.4 mph NW8.7 kmh NW 12.1 mph19.5 kmh 30.14 in1020.7 mb 0.00 in0.0 mm 0.00 in0.0 mm 0.00 in0.0 mm
12:25 AM 54.5°F12.5°C 49.8°F9.9°C 84% 4.9 mph NW7.9 kmh NW 11.6 mph18.7 kmh 30.14 in1020.7 mb 0.00 in0.0 mm 0.00 in0.0 mm 0.00 in0.0 mm
12:20 AM 54.5°F12.5°C 49.8°F9.9°C 84% 4.9 mph NW7.9 kmh NW 11.6 mph18.7 kmh 30.13 in1020.3 mb 0.00 in0.0 mm 0.00 in0.0 mm 0.00 in0.0 mm
12:15 AM 54.5°F12.5°C 49.8°F9.9°C 84% 4.5 mph NW7.2 kmh NW 10.3 mph16.6 kmh 30.13 in1020.3 mb 0.00 in0.0 mm 0.00 in0.0 mm 0.00 in0.0 mm
12:10 AM 54.5°F12.5°C 49.8°F9.9°C 84% 4.0 mph NNW6.4 kmh NNW 9.4 mph15.1 kmh 30.14 in1020.7 mb 0.00 in0.0 mm 0.00 in0.0 mm 0.00 in0.0 mm
12:05 AM 54.5°F12.5°C 49.8°F9.9°C 84% 4.0 mph N6.4 kmh N 9.4 mph15.1 kmh 30.13 in1020.3 mb 0.00 in0.0 mm 0.00 in0.0 mm 0.00 in0.0 mm
12:00 AM 54.3°F12.4°C 49.6°F9.8°C 84% 3.6 mph NNW5.8 kmh NNW 8.1 mph13.0 kmh 30.13 in1020.3 mb 0.00 in0.0 mm 0.00 in0.0 mm 0.00 in0.0 mm